createdAt,value
2023-04-27T00:00:56.590Z,96819.75
2023-04-27T00:03:23.857Z,96805.47
2023-04-27T00:05:51.733Z,96819.84
2023-04-27T00:08:19.015Z,96838.72
2023-04-27T00:10:46.376Z,96862.47
2023-04-27T00:13:13.458Z,96907.13
2023-04-27T00:15:40.998Z,96926.59
2023-04-27T00:18:08.136Z,96959.56
2023-04-27T00:20:35.689Z,96995.00
2023-04-27T00:23:02.820Z,96988.03
2023-04-27T00:25:29.898Z,96965.28
2023-04-27T00:27:56.995Z,96965.69
2023-04-27T00:30:25.123Z,96943.16
2023-04-27T00:32:53.769Z,96919.38
2023-04-27T00:35:21.255Z,96913.69
2023-04-27T00:37:48.307Z,96920.22
2023-04-27T00:40:15.380Z,96932.09
2023-04-27T00:42:42.441Z,96928.41
2023-04-27T00:45:10.491Z,96918.56
2023-04-27T00:47:37.619Z,96921.06
2023-04-27T00:50:08.529Z,96933.97
2023-04-27T00:52:39.014Z,96916.94
2023-04-27T00:55:06.362Z,96909.56
2023-04-27T00:57:33.780Z,96879.28
2023-04-27T01:00:01.518Z,96868.63
2023-04-27T01:02:30.061Z,96869.81
2023-04-27T01:04:57.545Z,96847.34
2023-04-27T01:07:25.071Z,96850.63
2023-04-27T01:09:52.206Z,96873.94
2023-04-27T01:12:19.292Z,96879.44
2023-04-27T01:14:46.427Z,96874.75
2023-04-27T01:17:14.175Z,96884.59
2023-04-27T01:19:41.299Z,96854.53
2023-04-27T01:22:08.388Z,96888.31
2023-04-27T01:24:35.544Z,96880.34
2023-04-27T01:27:05.542Z,96896.72
2023-04-27T01:29:32.725Z,96915.56
2023-04-27T01:31:59.851Z,96925.63
2023-04-27T01:34:26.953Z,96957.94
2023-04-27T01:36:53.982Z,96972.28
2023-04-27T01:39:21.975Z,96954.66
2023-04-27T01:41:48.976Z,96932.31
2023-04-27T01:44:16.158Z,96927.25
2023-04-27T01:46:43.261Z,96938.06
2023-04-27T01:49:10.483Z,96905.16
2023-04-27T01:51:37.528Z,96934.19
2023-04-27T01:54:04.615Z,96949.13
2023-04-27T01:56:31.941Z,96962.84
2023-04-27T01:58:59.103Z,96963.25
2023-04-27T02:01:26.489Z,96970.22
2023-04-27T02:03:53.710Z,96957.75
2023-04-27T02:06:21.113Z,96949.75
2023-04-27T02:08:48.604Z,96962.88
2023-04-27T02:11:15.742Z,96976.78
2023-04-27T02:13:43.303Z,96963.66
2023-04-27T02:16:10.541Z,96981.06
2023-04-27T02:18:38.531Z,96977.59
2023-04-27T02:21:10.049Z,96959.59
2023-04-27T02:23:37.287Z,96937.06
2023-04-27T02:26:04.512Z,96918.19
2023-04-27T02:28:32.317Z,96941.53
2023-04-27T02:31:01.453Z,96988.41
2023-04-27T02:33:28.565Z,97006.22
2023-04-27T02:35:57.672Z,96973.84
2023-04-27T02:38:24.716Z,96959.50
2023-04-27T02:40:55.110Z,96969.28
2023-04-27T02:43:22.567Z,96999.75
2023-04-27T02:45:49.687Z,97022.13
2023-04-27T02:48:16.737Z,97031.50
2023-04-27T02:50:44.493Z,97012.22
2023-04-27T02:53:12.237Z,97005.84
2023-04-27T02:55:46.406Z,97043.13
2023-04-27T02:58:13.574Z,97050.31
2023-04-27T03:00:41.577Z,97033.91
2023-04-27T03:03:09.922Z,97035.56
2023-04-27T03:05:38.154Z,97022.28
2023-04-27T03:08:05.342Z,97008.28
2023-04-27T03:10:32.633Z,97000.66
2023-04-27T03:13:01.512Z,97035.25
2023-04-27T03:15:28.726Z,97031.00
2023-04-27T03:17:55.986Z,96995.31
2023-04-27T03:20:23.132Z,96973.94
2023-04-27T03:22:50.541Z,96985.75
2023-04-27T03:25:19.704Z,97011.66
2023-04-27T03:27:46.903Z,97074.97
2023-04-27T03:30:14.209Z,97059.38
2023-04-27T03:32:41.405Z,97092.97
2023-04-27T03:35:09.777Z,97101.00
2023-04-27T03:37:36.906Z,97108.25
2023-04-27T03:40:07.514Z,97124.50
2023-04-27T03:42:34.742Z,97101.66
2023-04-27T03:45:02.113Z,97132.75
2023-04-27T03:47:29.347Z,97136.25
2023-04-27T03:49:57.573Z,97151.88
2023-04-27T03:52:24.768Z,97119.38
2023-04-27T03:54:51.992Z,97118.94
2023-04-27T03:57:19.180Z,97128.50
2023-04-27T03:59:46.304Z,97145.56
2023-04-27T04:02:13.552Z,97197.50
2023-04-27T04:04:42.372Z,97195.22
2023-04-27T04:07:09.677Z,97222.28
2023-04-27T04:09:36.869Z,97189.28
2023-04-27T04:12:04.178Z,97200.97
2023-04-27T04:14:31.243Z,97204.63
2023-04-27T04:16:58.471Z,97213.75
2023-04-27T04:19:25.882Z,97237.78
2023-04-27T04:21:54.643Z,97236.97
2023-04-27T04:24:21.853Z,97241.84
2023-04-27T04:26:48.900Z,97264.88
2023-04-27T04:29:16.775Z,97299.03
2023-04-27T04:31:44.452Z,97296.63
2023-04-27T04:34:11.619Z,97309.88
2023-04-27T04:36:38.708Z,97293.34
2023-04-27T04:39:06.779Z,97299.94
2023-04-27T04:41:33.858Z,97290.22
2023-04-27T04:44:00.943Z,97308.69
2023-04-27T04:46:28.588Z,97312.00
2023-04-27T04:48:56.978Z,97291.75
2023-04-27T04:51:24.074Z,97287.81
2023-04-27T04:53:51.179Z,97301.22
2023-04-27T04:56:18.373Z,97315.53
2023-04-27T04:58:45.633Z,97322.97
2023-04-27T05:01:12.752Z,97318.16
2023-04-27T05:03:40.014Z,97317.41
2023-04-27T05:06:07.266Z,97299.59
2023-04-27T05:08:34.375Z,97273.34
2023-04-27T05:11:01.456Z,97268.81
2023-04-27T05:13:29.045Z,97294.66
2023-04-27T05:15:56.138Z,97310.47
2023-04-27T05:18:23.256Z,97312.13
2023-04-27T05:20:50.383Z,97306.41
2023-04-27T05:23:17.485Z,97312.56
2023-04-27T05:25:44.605Z,97348.63
2023-04-27T05:28:11.753Z,97362.66
2023-04-27T05:30:38.819Z,97358.75
2023-04-27T05:33:06.200Z,97369.63
2023-04-27T05:35:33.658Z,97364.13
2023-04-27T05:38:00.869Z,97368.22
2023-04-27T05:40:28.341Z,97376.47
2023-04-27T05:42:55.544Z,97353.03
2023-04-27T05:45:22.779Z,97357.84
2023-04-27T05:47:50.003Z,97379.41
2023-04-27T05:50:17.130Z,97380.28
2023-04-27T05:52:44.213Z,97383.63
2023-04-27T05:55:11.391Z,97373.16
2023-04-27T05:57:38.938Z,97388.75
2023-04-27T06:00:10.895Z,97397.56
2023-04-27T06:02:40.760Z,97411.78
2023-04-27T06:05:08.765Z,97456.66
2023-04-27T06:07:37.495Z,97484.44
2023-04-27T06:10:04.993Z,97492.88
2023-04-27T06:12:32.542Z,97525.38
2023-04-27T06:14:59.621Z,97538.75
2023-04-27T06:17:26.756Z,97533.81
2023-04-27T06:19:53.828Z,97533.00
2023-04-27T06:22:20.913Z,97565.88
2023-04-27T06:24:47.983Z,97583.19
2023-04-27T06:27:15.039Z,97585.66
2023-04-27T06:29:42.098Z,97612.78
2023-04-27T06:32:09.300Z,97653.88
2023-04-27T06:34:36.731Z,97666.50
2023-04-27T06:37:03.776Z,97667.97
2023-04-27T06:39:32.077Z,97665.63
2023-04-27T06:41:59.221Z,97664.63
2023-04-27T06:44:26.328Z,97687.47
2023-04-27T06:46:53.488Z,97676.97
2023-04-27T06:49:20.555Z,97632.03
2023-04-27T06:51:48.517Z,97631.06
2023-04-27T06:54:15.687Z,97641.34
2023-04-27T06:56:42.833Z,97664.88
2023-04-27T06:59:09.956Z,97641.88
2023-04-27T07:01:37.449Z,97598.94
2023-04-27T07:04:05.221Z,97545.16
2023-04-27T07:06:32.716Z,97536.78
2023-04-27T07:08:59.941Z,97536.78
2023-04-27T07:11:27.110Z,97511.75
2023-04-27T07:13:54.184Z,97489.97
2023-04-27T07:16:21.389Z,97447.88
2023-04-27T07:18:48.605Z,97446.81
2023-04-27T07:21:15.999Z,97409.78
2023-04-27T07:23:43.042Z,97389.63
2023-04-27T07:26:10.125Z,97364.31
2023-04-27T07:28:38.241Z,97358.66
2023-04-27T07:31:06.033Z,97357.75
2023-04-27T07:33:33.870Z,97307.75
2023-04-27T07:36:02.316Z,97203.97
2023-04-27T07:38:31.245Z,97187.38
2023-04-27T07:40:58.781Z,97156.88
2023-04-27T07:43:26.743Z,97095.00
2023-04-27T07:45:54.639Z,96985.53
2023-04-27T07:48:22.849Z,96863.41
2023-04-27T07:50:50.816Z,96831.22
2023-04-27T07:53:18.094Z,96737.31
2023-04-27T07:55:45.183Z,96741.63
2023-04-27T07:58:12.699Z,96718.84
2023-04-27T08:00:39.736Z,96715.31
2023-04-27T08:03:07.988Z,96768.50
2023-04-27T08:05:35.892Z,96651.50
2023-04-27T08:08:03.199Z,96643.75
2023-04-27T08:10:30.422Z,96599.75
2023-04-27T08:12:57.536Z,96590.28
2023-04-27T08:15:24.595Z,96575.03
2023-04-27T08:17:51.745Z,96520.56
2023-04-27T08:20:18.917Z,96473.75
2023-04-27T08:22:45.990Z,96464.22
2023-04-27T08:25:13.047Z,96442.69
2023-04-27T08:27:40.475Z,96397.97
2023-04-27T08:30:08.592Z,96390.91
2023-04-27T08:32:35.852Z,96383.25
2023-04-27T08:35:03.126Z,96383.59
2023-04-27T08:37:30.423Z,96270.66
2023-04-27T08:39:57.561Z,96140.53
2023-04-27T08:42:24.811Z,96033.84
2023-04-27T08:44:51.894Z,95820.75
2023-04-27T08:47:28.168Z,95770.78
2023-04-27T08:50:03.740Z,95679.94
2023-04-27T08:52:31.005Z,95634.00
2023-04-27T08:54:58.150Z,95601.97
2023-04-27T08:57:25.342Z,95574.31
2023-04-27T09:00:06.746Z,95575.03
2023-04-27T09:02:34.169Z,95537.31
2023-04-27T09:05:02.932Z,95487.06
2023-04-27T09:07:30.997Z,95417.72
2023-04-27T09:10:04.713Z,95329.03
2023-04-27T09:12:31.802Z,95131.03
2023-04-27T09:15:03.656Z,95103.00
2023-04-27T09:17:33.663Z,95038.81
2023-04-27T09:20:08.781Z,95045.38
2023-04-27T09:22:46.085Z,94973.66
2023-04-27T09:25:26.700Z,94942.53
2023-04-27T09:27:54.045Z,94884.09
2023-04-27T09:30:21.637Z,94826.88
2023-04-27T09:32:59.355Z,94762.22
2023-04-27T09:35:27.518Z,94729.75
2023-04-27T09:37:55.002Z,94700.13
2023-04-27T09:40:27.798Z,94678.59
2023-04-27T09:43:04.014Z,94632.16
2023-04-27T09:45:33.288Z,94623.38
2023-04-27T09:48:01.293Z,94608.47
2023-04-27T09:50:28.579Z,94589.00
2023-04-27T09:52:57.442Z,94589.78
2023-04-27T09:55:27.220Z,94583.50
2023-04-27T09:58:18.598Z,94569.53
2023-04-27T10:00:49.100Z,94587.06
2023-04-27T10:03:22.854Z,94598.69
2023-04-27T10:06:08.984Z,94601.84
2023-04-27T10:08:36.368Z,94611.53
2023-04-27T10:11:13.303Z,94640.44
2023-04-27T10:13:51.747Z,94648.53
2023-04-27T10:16:22.160Z,94673.63
2023-04-27T10:18:55.808Z,94652.97
2023-04-27T10:21:27.611Z,94671.50
2023-04-27T10:23:55.062Z,94670.53
2023-04-27T10:26:25.882Z,94690.06
2023-04-27T10:29:04.460Z,94694.56
2023-04-27T10:31:31.763Z,94720.59
2023-04-27T10:34:11.302Z,94723.16
2023-04-27T10:36:39.087Z,94731.69
2023-04-27T10:39:18.970Z,94736.63
2023-04-27T10:41:49.760Z,94748.56
2023-04-27T10:44:28.776Z,94754.75
2023-04-27T10:46:57.155Z,94736.81
2023-04-27T10:49:24.369Z,94758.63
2023-04-27T10:51:51.734Z,94769.16
2023-04-27T10:54:19.125Z,94761.47
2023-04-27T10:56:46.208Z,94767.88
2023-04-27T10:59:13.453Z,94808.66
2023-04-27T11:01:40.960Z,94831.16
2023-04-27T11:04:08.070Z,94856.91
2023-04-27T11:06:42.016Z,94832.38
2023-04-27T11:09:10.672Z,94845.22
2023-04-27T11:11:37.863Z,94875.44
2023-04-27T11:14:05.068Z,94911.00
2023-04-27T11:16:33.109Z,94911.59
2023-04-27T11:19:06.825Z,94940.75
2023-04-27T11:21:33.978Z,94941.38
2023-04-27T11:24:05.141Z,94984.06
2023-04-27T11:26:32.631Z,95004.16
2023-04-27T11:29:01.610Z,95021.41
2023-04-27T11:31:38.681Z,95001.19
2023-04-27T11:34:07.588Z,95044.75
2023-04-27T11:36:36.091Z,95050.31
2023-04-27T11:39:04.843Z,95052.56
2023-04-27T11:41:35.857Z,95033.06
2023-04-27T11:44:07.636Z,95015.06
2023-04-27T11:46:38.000Z,95014.28
2023-04-27T11:49:05.907Z,95027.66
2023-04-27T11:51:33.547Z,95085.16
2023-04-27T11:54:04.741Z,95111.69
2023-04-27T11:56:38.732Z,95152.22
2023-04-27T11:59:06.475Z,95126.66
2023-04-27T12:01:38.178Z,95141.91
2023-04-27T12:04:06.140Z,95149.47
2023-04-27T12:06:33.740Z,95175.25
2023-04-27T12:09:01.275Z,95185.03
2023-04-27T12:11:28.491Z,95188.16
2023-04-27T12:13:56.118Z,95224.44
2023-04-27T12:16:23.482Z,95303.38
2023-04-27T12:18:51.068Z,95305.66
2023-04-27T12:21:18.437Z,95328.81
2023-04-27T12:23:45.647Z,95319.25
2023-04-27T12:26:14.961Z,95321.63
2023-04-27T12:28:42.557Z,95331.69
2023-04-27T12:31:13.291Z,95307.19
2023-04-27T12:33:40.605Z,95323.88
2023-04-27T12:36:07.740Z,95360.34
2023-04-27T12:38:34.834Z,95346.25
2023-04-27T12:41:02.248Z,95349.22
2023-04-27T12:43:29.401Z,95371.94
2023-04-27T12:45:56.708Z,95390.06
2023-04-27T12:48:23.922Z,95462.81
2023-04-27T12:50:51.065Z,95487.69
2023-04-27T12:53:18.268Z,95506.56
2023-04-27T12:55:46.926Z,95526.78
2023-04-27T12:58:14.442Z,95581.78
2023-04-27T13:00:41.993Z,95585.41
2023-04-27T13:03:09.505Z,95613.31
2023-04-27T13:05:36.827Z,95630.28
2023-04-27T13:08:05.599Z,95652.44
2023-04-27T13:10:32.800Z,95657.16
2023-04-27T13:13:00.115Z,95657.16
2023-04-27T13:15:28.465Z,95649.34
2023-04-27T13:17:56.803Z,95648.13
2023-04-27T13:20:23.970Z,95644.59
2023-04-27T13:22:51.116Z,95674.00
2023-04-27T13:25:19.828Z,95711.06
2023-04-27T13:27:47.030Z,95845.75
2023-04-27T13:30:14.173Z,95901.25
2023-04-27T13:32:41.557Z,95926.66
2023-04-27T13:35:08.953Z,95957.97
2023-04-27T13:37:36.097Z,95976.53
2023-04-27T13:40:05.304Z,95981.22
2023-04-27T13:42:32.407Z,95981.31
2023-04-27T13:44:59.692Z,95983.00
2023-04-27T13:47:29.190Z,95982.56
2023-04-27T13:49:56.440Z,95990.66
2023-04-27T13:52:23.573Z,95993.13
2023-04-27T13:54:50.860Z,95987.03
2023-04-27T13:57:17.956Z,95996.91
2023-04-27T13:59:44.994Z,95995.66
2023-04-27T14:02:12.468Z,95986.44
2023-04-27T14:04:39.651Z,95989.34
2023-04-27T14:07:07.037Z,95986.94
2023-04-27T14:09:34.138Z,96002.06
2023-04-27T14:12:01.534Z,95996.25
2023-04-27T14:14:29.304Z,95998.25
2023-04-27T14:16:57.262Z,95990.22
2023-04-27T14:19:24.336Z,95988.63
2023-04-27T14:21:51.627Z,95992.00
2023-04-27T14:24:18.760Z,96001.38
2023-04-27T14:26:47.553Z,95992.03
2023-04-27T14:29:15.571Z,95995.00
2023-04-27T14:31:43.216Z,95991.28
2023-04-27T14:34:10.950Z,96004.63
2023-04-27T14:36:37.984Z,95997.16
2023-04-27T14:39:06.729Z,95998.06
2023-04-27T14:41:33.922Z,95995.53
2023-04-27T14:44:01.135Z,95992.75
2023-04-27T14:46:28.763Z,96000.56
2023-04-27T14:48:56.202Z,95999.78
2023-04-27T14:51:23.310Z,95997.09
2023-04-27T14:53:50.484Z,96001.09
2023-04-27T14:56:17.708Z,95995.00
2023-04-27T14:58:44.798Z,95987.09
2023-04-27T15:01:11.906Z,95985.94
2023-04-27T15:03:39.236Z,95981.53
2023-04-27T15:06:06.805Z,95985.22
2023-04-27T15:08:34.498Z,95985.50
2023-04-27T15:11:03.791Z,95978.34
2023-04-27T15:13:31.155Z,95987.63
2023-04-27T15:15:59.017Z,95988.59
2023-04-27T15:18:26.296Z,95989.41
2023-04-27T15:20:54.096Z,95985.94
2023-04-27T15:23:21.744Z,95983.78
2023-04-27T15:25:49.267Z,95983.94
2023-04-27T15:28:16.740Z,95986.81
2023-04-27T15:30:44.210Z,95984.03
2023-04-27T15:33:11.631Z,95972.06
2023-04-27T15:35:40.289Z,95972.41
2023-04-27T15:38:09.469Z,95968.03
2023-04-27T15:40:36.677Z,95965.63
2023-04-27T15:43:04.837Z,95969.53
2023-04-27T15:45:31.950Z,95960.13
2023-04-27T15:47:59.644Z,95955.31
2023-04-27T15:50:26.799Z,95952.47
2023-04-27T15:52:54.028Z,95954.22
2023-04-27T15:55:22.050Z,95950.88
2023-04-27T15:57:49.442Z,95953.13
2023-04-27T16:00:17.915Z,95953.13
2023-04-27T16:02:45.142Z,95950.59
2023-04-27T16:05:12.327Z,95946.41
2023-04-27T16:07:39.850Z,95946.72
2023-04-27T16:10:07.602Z,95937.50
2023-04-27T16:12:35.165Z,95933.50
2023-04-27T16:15:02.259Z,95926.94
2023-04-27T16:17:33.398Z,95925.22
2023-04-27T16:20:00.609Z,95917.59
2023-04-27T16:22:28.047Z,95921.00
2023-04-27T16:24:55.157Z,95924.31
2023-04-27T16:27:22.297Z,95919.53
2023-04-27T16:29:49.653Z,95918.44
2023-04-27T16:32:17.571Z,95922.97
2023-04-27T16:34:44.769Z,95916.72
2023-04-27T16:37:11.926Z,95918.63
2023-04-27T16:39:39.005Z,95918.50
2023-04-27T16:42:06.222Z,95912.91
2023-04-27T16:44:33.330Z,95910.63
2023-04-27T16:47:00.381Z,95909.00
2023-04-27T16:49:27.488Z,95911.19
2023-04-27T16:51:56.242Z,95908.06
2023-04-27T16:54:23.389Z,95909.41
2023-04-27T16:56:50.558Z,95905.16
2023-04-27T16:59:17.674Z,95906.03
2023-04-27T17:01:44.840Z,95907.13
2023-04-27T17:04:12.144Z,95904.22
2023-04-27T17:06:40.448Z,95908.06
2023-04-27T17:09:08.279Z,95907.44
2023-04-27T17:11:35.415Z,95897.53
2023-04-27T17:14:02.525Z,95909.13
2023-04-27T17:16:29.628Z,95897.75
2023-04-27T17:18:56.809Z,95902.06
2023-04-27T17:21:25.093Z,95894.38
2023-04-27T17:23:53.174Z,95892.25
2023-04-27T17:26:21.555Z,95892.44
2023-04-27T17:28:49.325Z,95890.06
2023-04-27T17:31:17.688Z,95888.75
2023-04-27T17:33:45.332Z,95876.34
2023-04-27T17:36:12.979Z,95879.34
2023-04-27T17:38:40.812Z,95873.72
2023-04-27T17:41:07.929Z,95876.44
2023-04-27T17:43:35.114Z,95870.22
2023-04-27T17:46:06.227Z,95877.00
2023-04-27T17:48:33.390Z,95860.06
2023-04-27T17:51:00.442Z,95867.63
2023-04-27T17:53:27.492Z,95863.56
2023-04-27T17:55:54.640Z,95865.53
2023-04-27T17:58:21.693Z,95866.34
2023-04-27T18:00:48.764Z,95856.97
2023-04-27T18:03:16.092Z,95863.72
2023-04-27T18:05:43.369Z,95862.38
2023-04-27T18:08:10.948Z,95858.16
2023-04-27T18:10:38.059Z,95857.63
2023-04-27T18:13:05.115Z,95856.81
2023-04-27T18:15:32.205Z,95857.94
2023-04-27T18:17:59.344Z,95839.72
2023-04-27T18:20:27.982Z,95837.31
2023-04-27T18:22:55.158Z,95831.94
2023-04-27T18:25:22.228Z,95834.41
2023-04-27T18:27:55.158Z,95827.41
2023-04-27T18:30:22.975Z,95812.06
2023-04-27T18:32:50.206Z,95802.88
2023-04-27T18:35:17.430Z,95797.81
2023-04-27T18:37:48.270Z,95795.66
2023-04-27T18:40:16.712Z,95785.75
2023-04-27T18:42:43.862Z,95778.78
2023-04-27T18:45:11.282Z,95766.72
2023-04-27T18:47:38.457Z,95750.31
2023-04-27T18:50:06.467Z,95738.25
2023-04-27T18:52:33.620Z,95723.72
2023-04-27T18:55:00.850Z,95694.97
2023-04-27T18:57:27.992Z,95683.94
2023-04-27T18:59:55.229Z,95668.94
2023-04-27T19:02:22.408Z,95661.44
2023-04-27T19:05:01.730Z,95642.91
2023-04-27T19:07:36.621Z,95644.81
2023-04-27T19:10:04.029Z,95641.91
2023-04-27T19:12:31.392Z,95635.22
2023-04-27T19:14:58.479Z,95620.72
2023-04-27T19:17:26.018Z,95607.53
2023-04-27T19:19:53.276Z,95601.94
2023-04-27T19:22:20.372Z,95606.00
2023-04-27T19:24:47.923Z,95615.72
2023-04-27T19:27:15.225Z,95615.53
2023-04-27T19:29:52.981Z,95620.34
2023-04-27T19:32:20.818Z,95623.59
2023-04-27T19:34:48.473Z,95634.91
2023-04-27T19:37:16.058Z,95644.03
2023-04-27T19:39:43.194Z,95657.19
2023-04-27T19:42:10.337Z,95667.69
2023-04-27T19:44:37.373Z,95679.00
2023-04-27T19:47:04.468Z,95689.75
2023-04-27T19:49:32.720Z,95697.81
2023-04-27T19:52:00.560Z,95699.97
2023-04-27T19:54:27.699Z,95712.81
2023-04-27T19:56:55.588Z,95711.22
2023-04-27T19:59:22.687Z,95727.84
2023-04-27T20:01:49.908Z,95742.91
2023-04-27T20:04:18.261Z,95754.72
2023-04-27T20:06:46.422Z,95764.09
2023-04-27T20:09:13.528Z,95769.19
2023-04-27T20:11:40.688Z,95802.75
2023-04-27T20:14:07.739Z,95831.44
2023-04-27T20:16:34.942Z,95907.09
2023-04-27T20:19:02.097Z,95945.72
2023-04-27T20:21:29.360Z,95967.75
2023-04-27T20:23:56.551Z,95984.88
2023-04-27T20:26:24.496Z,96001.00
2023-04-27T20:28:52.086Z,96008.97
2023-04-27T20:31:19.262Z,96011.16
2023-04-27T20:33:46.374Z,96019.19
2023-04-27T20:36:17.976Z,96020.75
2023-04-27T20:38:45.775Z,96022.84
2023-04-27T20:41:12.866Z,96027.91
2023-04-27T20:43:40.408Z,96048.03
2023-04-27T20:46:07.842Z,96049.66
2023-04-27T20:48:35.050Z,96064.69
2023-04-27T20:51:02.380Z,96074.31
2023-04-27T20:53:29.678Z,96074.28
2023-04-27T20:55:57.039Z,96088.50
2023-04-27T20:58:24.871Z,96134.09
2023-04-27T21:00:52.106Z,96131.38
2023-04-27T21:03:19.516Z,96097.00
2023-04-27T21:05:47.260Z,96090.28
2023-04-27T21:08:14.738Z,96094.59
2023-04-27T21:10:41.992Z,96083.56
2023-04-27T21:13:09.199Z,96094.78
2023-04-27T21:15:36.263Z,96090.78
2023-04-27T21:20:33.661Z,96078.13
2023-04-27T21:23:00.785Z,96072.47
2023-04-27T21:25:27.864Z,96071.56
2023-04-27T21:27:54.919Z,96064.59
2023-04-27T21:30:21.973Z,96072.94
2023-04-27T21:32:49.653Z,96061.16
2023-04-27T21:35:16.780Z,96060.59
2023-04-27T21:37:43.884Z,96064.59
2023-04-27T21:40:11.178Z,96058.84
2023-04-27T21:42:38.274Z,96058.78
2023-04-27T21:45:05.855Z,96068.94
2023-04-27T21:47:32.980Z,96055.59
2023-04-27T21:50:00.151Z,96071.94
2023-04-27T21:52:27.204Z,96062.56
2023-04-27T21:54:54.251Z,96062.56
2023-04-27T21:57:21.350Z,96049.75
2023-04-27T21:59:48.412Z,96052.66
2023-04-27T22:02:16.166Z,96049.69
2023-04-27T22:04:43.588Z,96052.91
2023-04-27T22:07:12.051Z,96043.47
2023-04-27T22:09:39.182Z,96042.13
2023-04-27T22:12:06.559Z,96043.19
2023-04-27T22:14:33.687Z,96047.72
2023-04-27T22:17:01.051Z,96050.09
2023-04-27T22:19:28.704Z,96049.03
2023-04-27T22:21:56.589Z,96046.88
2023-04-27T22:24:23.719Z,96044.44
2023-04-27T22:26:50.787Z,96044.69
2023-04-27T22:29:18.167Z,96033.09
2023-04-27T22:31:45.598Z,96037.03
2023-04-27T22:34:13.106Z,96028.19
2023-04-27T22:36:40.530Z,96035.16
2023-04-27T22:39:08.284Z,96025.72
2023-04-27T22:41:36.086Z,96039.06
2023-04-27T22:44:03.181Z,96038.28
2023-04-27T22:46:30.573Z,96045.03
2023-04-27T22:48:58.646Z,96055.75
2023-04-27T22:51:27.262Z,96045.03
2023-04-27T22:53:54.714Z,96048.19
2023-04-27T22:56:22.512Z,96029.16
2023-04-27T22:58:49.791Z,96047.09
2023-04-27T23:01:17.221Z,96037.97
2023-04-27T23:03:44.730Z,96026.50
2023-04-27T23:06:14.886Z,96023.50
2023-04-27T23:08:43.108Z,96026.59
2023-04-27T23:11:13.814Z,96026.59
2023-04-27T23:13:41.020Z,96017.97
2023-04-27T23:16:09.918Z,96017.97
2023-04-27T23:18:37.269Z,96014.72
2023-04-27T23:21:04.344Z,96036.13
2023-04-27T23:23:31.424Z,96032.41
2023-04-27T23:25:58.548Z,96016.34
2023-04-27T23:28:25.837Z,96009.69
2023-04-27T23:30:54.476Z,96011.31
2023-04-27T23:33:21.976Z,95983.16
2023-04-27T23:35:49.105Z,95974.56
2023-04-27T23:38:16.209Z,95972.97
2023-04-27T23:40:43.302Z,95971.09
2023-04-27T23:43:10.549Z,95945.66
2023-04-27T23:45:37.728Z,95944.59
2023-04-27T23:48:05.024Z,95948.22
2023-04-27T23:50:32.630Z,95940.78
2023-04-27T23:52:59.773Z,95928.53
2023-04-27T23:55:26.902Z,95917.28
2023-04-27T23:57:54.103Z,95902.84
